Time;durP1;ratioP1;P1;durP2;ratioP2;P2;SDS_P1;SDS_P2;PMS_P1;PMS_P2;Temp;Humidity;BMP_temperature;BMP_pressure;BME280_temperature;BME280_humidity;BME280_pressure;Samples;Min_cycle;Max_cycle;Signal;HPM_P1;HPM_P2
2022/02/17 00:01:09;;;;;;;2.15;1.00;;;12.80;99.90;;;;;;4979394;28;20030;-67
2022/02/17 00:03:34;;;;;;;2.42;0.90;;;12.80;99.90;;;;;;4988853;28;20048;-67
2022/02/17 00:06:01;;;;;;;0.98;0.70;;;12.80;99.90;;;;;;4997146;28;20029;-68
2022/02/17 00:08:26;;;;;;;6.57;1.08;;;12.80;99.90;;;;;;4987926;28;20062;-67
2022/02/17 00:10:52;;;;;;;0.75;0.73;;;12.80;99.90;;;;;;4984914;28;20030;-67
2022/02/17 00:13:17;;;;;;;0.73;0.65;;;12.80;99.90;;;;;;4979868;28;20019;-67
2022/02/17 00:15:43;;;;;;;1.48;0.90;;;12.70;99.90;;;;;;4989492;28;20049;-66
2022/02/17 00:18:14;;;;;;;1.08;0.77;;;12.30;99.90;;;;;;4984906;28;20042;-66
2022/02/17 00:20:40;;;;;;;1.27;0.90;;;12.00;99.90;;;;;;4984617;28;20078;-66
2022/02/17 00:23:06;;;;;;;6.13;1.48;;;11.90;99.90;;;;;;4984936;28;20498;-66
2022/02/17 00:25:32;;;;;;;2.10;0.82;;;11.90;99.90;;;;;;4989193;28;20070;-67
2022/02/17 00:27:57;;;;;;;2.08;0.98;;;11.80;99.90;;;;;;4987177;28;20038;-67
2022/02/17 00:30:23;;;;;;;1.50;0.80;;;11.80;99.90;;;;;;4986306;28;20066;-67
2022/02/17 00:32:48;;;;;;;3.80;1.00;;;11.90;99.90;;;;;;4989749;28;20034;-67
2022/02/17 00:35:14;;;;;;;2.30;0.85;;;11.90;99.90;;;;;;4987587;28;20034;-67
2022/02/17 00:37:40;;;;;;;0.60;0.60;;;11.90;99.90;;;;;;4990833;28;20031;-67
2022/02/17 00:40:06;;;;;;;0.60;0.60;;;11.90;99.90;;;;;;4985280;28;20027;-67
2022/02/17 00:42:32;;;;;;;4.07;1.17;;;11.90;99.90;;;;;;4985746;28;20027;-66
2022/02/17 00:44:58;;;;;;;0.68;0.68;;;11.80;99.90;;;;;;4985966;28;20030;-66
2022/02/17 00:47:24;;;;;;;3.50;1.23;;;11.70;99.90;;;;;;4983512;28;20042;-66
2022/02/17 00:49:50;;;;;;;4.57;1.23;;;11.50;99.90;;;;;;4980838;28;20487;-66
2022/02/17 00:52:15;;;;;;;2.20;0.93;;;11.20;99.90;;;;;;4985695;28;20549;-66
2022/02/17 00:54:41;;;;;;;1.35;0.93;;;11.10;99.90;;;;;;4985166;28;20085;-66
2022/02/17 00:57:07;;;;;;;3.83;1.05;;;11.10;99.90;;;;;;4986637;28;20030;-66
2022/02/17 00:59:32;;;;;;;0.77;0.70;;;11.10;99.90;;;;;;4984737;28;20395;-66
2022/02/17 01:01:58;;;;;;;1.30;0.70;;;11.20;99.90;;;;;;4990745;28;20061;-66
2022/02/17 01:04:24;;;;;;;0.77;0.70;;;11.30;99.90;;;;;;4986318;28;20030;-66
2022/02/17 01:06:51;;;;;;;2.17;0.80;;;11.40;99.90;;;;;;4993493;28;20092;-66
2022/02/17 01:09:17;;;;;;;2.55;1.17;;;11.40;99.90;;;;;;4989828;28;20514;-66
2022/02/17 01:11:43;;;;;;;4.15;0.90;;;11.50;99.90;;;;;;4983791;28;20107;-66
2022/02/17 01:14:09;;;;;;;4.43;1.33;;;11.50;99.90;;;;;;4985509;28;20084;-66
2022/02/17 01:16:36;;;;;;;1.20;0.95;;;11.50;99.90;;;;;;4988618;28;20043;-66
2022/02/17 01:19:01;;;;;;;2.45;1.00;;;11.50;99.90;;;;;;5006213;28;20071;-66
2022/02/17 01:21:27;;;;;;;2.17;1.00;;;11.50;99.90;;;;;;4986736;28;20105;-67
2022/02/17 01:23:53;;;;;;;2.65;1.23;;;11.40;99.90;;;;;;4990046;28;20181;-66
2022/02/17 01:26:19;;;;;;;3.10;1.00;;;11.40;99.90;;;;;;4991277;28;20440;-66
2022/02/17 01:28:44;;;;;;;2.22;1.08;;;11.40;99.90;;;;;;4987102;28;20040;-66
2022/02/17 01:31:10;;;;;;;4.70;1.20;;;11.40;99.90;;;;;;4989668;28;20018;-66
2022/02/17 01:33:36;;;;;;;3.10;1.20;;;11.30;99.90;;;;;;4987986;28;20030;-66
2022/02/17 01:36:09;;;;;;;1.48;0.80;;;11.30;99.90;;;;;;4988938;28;20024;-66
2022/02/17 01:38:36;;;;;;;2.17;0.90;;;11.30;99.90;;;;;;4985950;28;20029;-66
2022/02/17 01:41:04;;;;;;;4.63;1.20;;;11.20;99.90;;;;;;4986497;28;20061;-66
2022/02/17 01:43:31;;;;;;;1.85;0.90;;;11.20;99.90;;;;;;4983197;28;20014;-66
2022/02/17 01:45:58;;;;;;;2.65;1.17;;;11.20;99.90;;;;;;4984844;28;20438;-66
2022/02/17 01:48:24;;;;;;;3.92;1.17;;;11.20;99.90;;;;;;4988836;28;20548;-66
2022/02/17 01:50:50;;;;;;;3.10;1.35;;;11.10;99.90;;;;;;4985060;28;20034;-66
2022/02/17 01:53:16;;;;;;;1.20;0.80;;;11.10;99.90;;;;;;4983906;28;20495;-66
2022/02/17 01:55:45;;;;;;;4.40;1.40;;;11.00;99.90;;;;;;4983047;28;20471;-67
2022/02/17 01:58:11;;;;;;;7.57;1.85;;;11.00;99.90;;;;;;4988012;28;20023;-67
2022/02/17 02:00:37;;;;;;;4.25;1.52;;;11.00;99.90;;;;;;4986650;28;20537;-67
2022/02/17 02:03:02;;;;;;;3.92;1.52;;;11.00;99.90;;;;;;4987729;28;20049;-66
2022/02/17 02:05:28;;;;;;;3.35;1.40;;;10.80;99.90;;;;;;4984808;28;20053;-66
2022/02/17 02:07:54;;;;;;;4.35;1.50;;;10.80;99.90;;;;;;4986041;28;20055;-67
2022/02/17 02:10:21;;;;;;;5.40;1.77;;;10.90;99.90;;;;;;4984077;28;20295;-67
2022/02/17 02:12:46;;;;;;;5.50;2.17;;;10.90;99.90;;;;;;4982937;28;20065;-67
2022/02/17 02:15:14;;;;;;;5.78;1.20;;;11.10;99.90;;;;;;4989296;28;20656;-67
2022/02/17 02:17:40;;;;;;;9.63;2.88;;;11.00;99.90;;;;;;4986698;28;20018;-67
2022/02/17 02:20:07;;;;;;;9.30;2.53;;;11.20;99.90;;;;;;4984942;28;20046;-68
2022/02/17 02:22:33;;;;;;;8.40;2.05;;;11.30;99.90;;;;;;4985175;28;20035;-67
2022/02/17 02:25:01;;;;;;;7.93;2.20;;;11.30;99.90;;;;;;4982514;28;20034;-67
2022/02/17 02:27:28;;;;;;;6.22;1.92;;;11.40;99.90;;;;;;4980638;28;20035;-67
2022/02/17 02:29:54;;;;;;;5.68;2.08;;;11.30;99.90;;;;;;4983471;28;20038;-67
2022/02/17 02:32:20;;;;;;;6.60;2.00;;;11.30;99.90;;;;;;4988582;28;20034;-67
2022/02/17 02:34:46;;;;;;;6.05;1.52;;;11.30;99.90;;;;;;4986834;28;20033;-67
2022/02/17 02:37:12;;;;;;;9.98;1.95;;;11.30;99.90;;;;;;4988268;28;20023;-67
2022/02/17 02:39:38;;;;;;;4.22;1.23;;;11.20;99.90;;;;;;4992594;28;20025;-68
2022/02/17 02:42:05;;;;;;;4.30;1.45;;;11.20;99.90;;;;;;4982023;28;20372;-68
2022/02/17 02:44:31;;;;;;;3.47;1.05;;;11.20;99.90;;;;;;4980848;28;20042;-67
2022/02/17 02:46:57;;;;;;;8.73;2.15;;;11.00;99.90;;;;;;5002048;28;20096;-67
2022/02/17 02:49:23;;;;;;;6.13;1.90;;;11.00;99.90;;;;;;4982899;28;20066;-67
2022/02/17 02:51:49;;;;;;;5.68;1.73;;;10.90;99.90;;;;;;4987628;28;20081;-67
2022/02/17 02:54:15;;;;;;;8.73;1.95;;;10.90;99.90;;;;;;4983609;28;20102;-67
2022/02/17 02:56:41;;;;;;;4.72;1.60;;;10.90;99.90;;;;;;4985367;28;20105;-67
2022/02/17 02:59:06;;;;;;;8.13;2.00;;;11.10;99.90;;;;;;4984269;28;20061;-67
2022/02/17 03:01:32;;;;;;;5.45;1.48;;;11.10;99.90;;;;;;4982087;28;20069;-67
2022/02/17 03:03:59;;;;;;;2.95;1.27;;;11.10;99.90;;;;;;4983773;28;20027;-67
2022/02/17 03:06:28;;;;;;;8.35;1.95;;;11.00;99.90;;;;;;4990428;28;20467;-67
2022/02/17 03:08:53;;;;;;;9.43;1.42;;;11.10;99.90;;;;;;4998497;28;20054;-67
2022/02/17 03:11:19;;;;;;;10.32;2.08;;;11.20;99.90;;;;;;4980627;28;20391;-68
2022/02/17 03:13:45;;;;;;;2.95;1.08;;;11.20;99.90;;;;;;4983508;28;20495;-68
2022/02/17 03:16:10;;;;;;;11.05;2.25;;;11.20;99.90;;;;;;4986916;28;20026;-68
2022/02/17 03:18:36;;;;;;;9.50;1.88;;;11.20;99.90;;;;;;4984537;28;20570;-68
2022/02/17 03:21:01;;;;;;;6.38;1.80;;;11.20;99.90;;;;;;4982943;28;20031;-68
2022/02/17 03:23:27;;;;;;;6.55;1.67;;;11.00;99.90;;;;;;4980666;28;20419;-68
2022/02/17 03:25:53;;;;;;;8.45;1.85;;;11.00;99.90;;;;;;4989025;28;20060;-68
2022/02/17 03:28:18;;;;;;;12.27;1.95;;;11.00;99.90;;;;;;4980270;28;20045;-69
2022/02/17 03:30:44;;;;;;;4.50;1.25;;;10.90;99.90;;;;;;4984962;28;20472;-68
2022/02/17 03:33:10;;;;;;;5.72;1.45;;;10.90;99.90;;;;;;4982502;28;20026;-69
2022/02/17 03:35:36;;;;;;;8.60;2.05;;;10.90;99.90;;;;;;4984373;28;20051;-69
2022/02/17 03:38:01;;;;;;;7.45;1.77;;;10.80;99.90;;;;;;5001658;28;20058;-69
2022/02/17 03:40:27;;;;;;;14.35;1.85;;;10.80;99.90;;;;;;4985097;28;20026;-69
2022/02/17 03:42:53;;;;;;;7.30;2.92;;;10.80;99.90;;;;;;4987490;28;20138;-69
2022/02/17 03:45:19;;;;;;;11.70;1.90;;;10.70;99.90;;;;;;4983694;28;20392;-69
2022/02/17 03:47:44;;;;;;;9.07;2.30;;;10.70;99.90;;;;;;4988624;28;20050;-69
2022/02/17 03:50:10;;;;;;;9.55;2.05;;;10.70;99.90;;;;;;4984832;28;20030;-69
2022/02/17 03:52:38;;;;;;;14.43;2.90;;;10.70;99.90;;;;;;4992271;28;20062;-69
2022/02/17 03:55:04;;;;;;;3.13;1.27;;;10.80;99.90;;;;;;4986717;28;20054;-69
2022/02/17 03:57:30;;;;;;;11.85;2.55;;;10.70;99.90;;;;;;4986495;28;20109;-69
2022/02/17 03:59:56;;;;;;;11.48;2.35;;;10.70;99.90;;;;;;4991168;28;20025;-68
2022/02/17 04:02:21;;;;;;;6.93;1.98;;;10.70;99.90;;;;;;4992607;28;20113;-68
2022/02/17 04:04:47;;;;;;;8.15;2.03;;;10.70;99.90;;;;;;4991592;28;20503;-68
2022/02/17 04:07:14;;;;;;;8.95;1.63;;;10.70;99.90;;;;;;4991050;28;20089;-68
2022/02/17 04:09:40;;;;;;;8.77;2.00;;;10.70;99.90;;;;;;4987089;28;20073;-68
2022/02/17 04:12:06;;;;;;;7.28;1.52;;;10.70;99.90;;;;;;4990739;28;20026;-68
2022/02/17 04:14:33;;;;;;;7.93;1.65;;;10.60;99.90;;;;;;4986759;28;20026;-68
2022/02/17 04:16:59;;;;;;;5.40;2.05;;;10.60;99.90;;;;;;4994508;28;20053;-68
2022/02/17 04:19:26;;;;;;;14.80;2.60;;;10.60;99.90;;;;;;4991970;28;20467;-68
2022/02/17 04:21:52;;;;;;;9.30;2.33;;;10.70;99.90;;;;;;4994665;28;20049;-68
2022/02/17 04:24:18;;;;;;;3.60;1.55;;;10.70;99.90;;;;;;4991393;28;20026;-68
2022/02/17 04:26:43;;;;;;;9.80;2.20;;;10.60;99.90;;;;;;4984477;28;20030;-68
2022/02/17 04:29:09;;;;;;;9.27;1.83;;;10.50;99.90;;;;;;5004141;28;20056;-68
2022/02/17 04:31:35;;;;;;;12.07;2.53;;;10.50;99.90;;;;;;4985778;28;20098;-68
2022/02/17 04:34:01;;;;;;;4.70;1.38;;;10.50;99.90;;;;;;4988535;28;20022;-68
2022/02/17 04:36:26;;;;;;;1.15;0.80;;;10.40;99.90;;;;;;4991722;28;20022;-68
2022/02/17 04:38:52;;;;;;;9.10;2.15;;;10.30;99.90;;;;;;4985957;28;20080;-68
2022/02/17 04:44:02;;;;;;;11.20;2.35;;;10.20;99.90;;;;;;4985872;28;20034;-69
2022/02/17 04:46:28;;;;;;;10.95;2.47;;;10.20;99.90;;;;;;4987018;28;20026;-68
2022/02/17 04:48:53;;;;;;;8.27;2.00;;;10.20;99.90;;;;;;4986229;28;20101;-68
2022/02/17 04:51:19;;;;;;;10.52;2.38;;;10.20;99.90;;;;;;5002257;28;20126;-68
2022/02/17 04:53:45;;;;;;;3.45;1.05;;;10.20;99.90;;;;;;4988028;28;20019;-68
2022/02/17 04:56:10;;;;;;;5.55;2.05;;;10.10;99.90;;;;;;4986827;28;20106;-68
2022/02/17 04:58:36;;;;;;;5.43;1.05;;;10.10;99.90;;;;;;4987729;28;20050;-68
2022/02/17 05:01:03;;;;;;;13.35;1.90;;;10.00;99.90;;;;;;4984438;28;20467;-68
2022/02/17 05:03:29;;;;;;;6.40;1.90;;;9.90;99.90;;;;;;4990506;28;20026;-68
2022/02/17 05:05:55;;;;;;;8.13;3.45;;;10.00;99.90;;;;;;4991194;28;20553;-68
2022/02/17 05:08:20;;;;;;;7.13;1.65;;;10.20;99.90;;;;;;4989846;28;20077;-68
2022/02/17 05:10:47;;;;;;;5.50;1.65;;;10.20;99.90;;;;;;4981558;28;20035;-68
2022/02/17 05:13:13;;;;;;;1.40;0.80;;;10.20;99.90;;;;;;4989069;28;20022;-68
2022/02/17 05:15:39;;;;;;;4.57;1.63;;;10.30;99.90;;;;;;4994095;28;20022;-68
2022/02/17 05:18:05;;;;;;;9.38;1.70;;;10.30;99.90;;;;;;4987100;28;20100;-68
2022/02/17 05:20:31;;;;;;;23.55;3.72;;;10.20;99.90;;;;;;4988176;28;20049;-68
2022/02/17 05:22:56;;;;;;;14.77;2.83;;;10.20;99.90;;;;;;4984267;28;20027;-67
2022/02/17 05:25:22;;;;;;;13.13;2.35;;;10.40;99.90;;;;;;4982759;28;20026;-67
2022/02/17 05:27:48;;;;;;;12.70;3.00;;;10.40;99.90;;;;;;4989986;28;20169;-66
2022/02/17 05:30:14;;;;;;;3.88;1.13;;;10.30;99.90;;;;;;4996515;28;20030;-69
2022/02/17 05:32:41;;;;;;;11.40;2.63;;;10.30;99.90;;;;;;4997520;28;20018;-68
2022/02/17 05:35:08;;;;;;;3.70;1.45;;;10.10;99.90;;;;;;5003771;28;20475;-68
2022/02/17 05:37:34;;;;;;;13.77;2.70;;;10.10;99.90;;;;;;5000729;28;20019;-68
2022/02/17 05:40:00;;;;;;;7.75;1.95;;;10.10;99.90;;;;;;5000809;28;20076;-68
2022/02/17 05:42:26;;;;;;;4.63;1.58;;;10.00;99.90;;;;;;5000922;28;20065;-68
2022/02/17 05:44:51;;;;;;;13.00;2.47;;;10.00;99.90;;;;;;4997036;28;20522;-68
2022/02/17 05:47:17;;;;;;;8.50;2.17;;;10.00;99.90;;;;;;4988104;28;20261;-68
2022/02/17 05:49:42;;;;;;;17.27;3.05;;;10.10;99.90;;;;;;4986780;28;20113;-68
2022/02/17 05:52:08;;;;;;;11.43;3.55;;;10.10;99.90;;;;;;4989283;28;20360;-68
2022/02/17 05:54:34;;;;;;;6.18;1.63;;;10.10;99.90;;;;;;4990961;28;20058;-67
2022/02/17 05:56:59;;;;;;;12.75;2.40;;;10.10;99.90;;;;;;4995841;28;20040;-67
2022/02/17 05:59:25;;;;;;;6.47;1.45;;;10.10;99.90;;;;;;4999134;28;20466;-67
2022/02/17 06:01:50;;;;;;;11.32;2.33;;;9.80;99.90;;;;;;4997986;28;20105;-67
2022/02/17 06:04:16;;;;;;;3.92;1.35;;;9.40;99.90;;;;;;4999068;28;20034;-67
2022/02/17 06:06:42;;;;;;;10.50;2.05;;;9.30;99.90;;;;;;5003126;28;20498;-67
2022/02/17 06:09:07;;;;;;;6.32;1.75;;;9.30;99.90;;;;;;4999707;28;20046;-67
2022/02/17 06:11:33;;;;;;;5.40;2.15;;;9.50;99.90;;;;;;4997277;28;20022;-67
2022/02/17 06:13:58;;;;;;;9.07;1.95;;;9.60;99.90;;;;;;4997545;28;20073;-67
2022/02/17 06:16:24;;;;;;;8.13;2.35;;;9.30;99.90;;;;;;5001909;28;20072;-67
2022/02/17 06:18:50;;;;;;;16.48;3.92;;;9.00;99.90;;;;;;4999538;28;20124;-66
2022/02/17 06:21:16;;;;;;;10.38;2.33;;;8.70;99.90;;;;;;4995252;28;20022;-67
2022/02/17 06:23:41;;;;;;;6.65;1.48;;;8.60;99.90;;;;;;4991256;28;20049;-67
2022/02/17 06:26:07;;;;;;;15.57;2.65;;;8.60;99.90;;;;;;4990002;28;20054;-67
2022/02/17 06:28:33;;;;;;;12.90;2.53;;;8.80;99.90;;;;;;4994091;28;20092;-66
2022/02/17 06:30:59;;;;;;;7.43;1.90;;;8.80;99.90;;;;;;5000188;28;20026;-66
2022/02/17 06:33:24;;;;;;;7.28;2.10;;;8.80;99.90;;;;;;5003357;28;20014;-66
2022/02/17 06:35:50;;;;;;;13.13;2.17;;;8.60;99.90;;;;;;4991633;28;20424;-66
2022/02/17 06:38:16;;;;;;;15.93;2.72;;;8.50;99.90;;;;;;4993893;28;20032;-67
2022/02/17 06:40:41;;;;;;;15.30;2.55;;;8.60;99.90;;;;;;4993685;28;20064;-67
2022/02/17 06:43:10;;;;;;;7.30;2.35;;;8.80;99.90;;;;;;4985291;28;20035;-67
2022/02/17 06:45:37;;;;;;;16.45;3.28;;;9.00;99.90;;;;;;4990671;28;20054;-67
2022/02/17 06:48:05;;;;;;;3.08;1.50;;;9.00;99.90;;;;;;4994899;28;20498;-67
2022/02/17 06:50:31;;;;;;;8.07;1.88;;;9.10;99.90;;;;;;5000234;28;20023;-68
2022/02/17 06:52:57;;;;;;;19.55;3.67;;;9.20;99.90;;;;;;4999333;28;20060;-68
2022/02/17 06:55:22;;;;;;;23.10;3.10;;;9.30;99.90;;;;;;4999594;28;20065;-68
2022/02/17 06:57:48;;;;;;;13.32;2.45;;;9.40;99.90;;;;;;4997287;28;20518;-68
2022/02/17 07:00:14;;;;;;;5.40;1.30;;;9.50;99.90;;;;;;4988689;28;20450;-68
2022/02/17 07:02:47;;;;;;;17.88;3.33;;;9.50;99.90;;;;;;4991496;28;20132;-68
2022/02/17 07:05:13;;;;;;;11.82;2.65;;;9.50;99.90;;;;;;4988129;28;20018;-68
2022/02/17 07:07:39;;;;;;;10.48;2.35;;;9.50;99.90;;;;;;4998685;28;20125;-65
2022/02/17 07:10:07;;;;;;;2.65;1.23;;;7.30;99.90;;;;;;4987510;28;20562;-65
2022/02/17 07:12:32;;;;;;;1.40;1.00;;;5.60;99.90;;;;;;4991381;28;20084;-66
2022/02/17 07:15:01;;;;;;;1.92;0.95;;;5.40;99.90;;;;;;4996835;28;20026;-66
2022/02/17 07:17:27;;;;;;;2.78;1.20;;;5.50;99.90;;;;;;4990385;28;20030;-66
2022/02/17 07:19:52;;;;;;;3.90;1.15;;;5.80;99.90;;;;;;4995935;28;20109;-66
2022/02/17 07:22:18;;;;;;;4.53;1.45;;;5.80;99.90;;;;;;4995628;28;20021;-66
2022/02/17 07:24:44;;;;;;;5.35;1.38;;;5.90;99.90;;;;;;5001385;28;20026;-66
2022/02/17 07:27:09;;;;;;;2.60;1.38;;;5.90;99.90;;;;;;4993967;28;20034;-66
2022/02/17 07:29:36;;;;;;;2.95;1.20;;;5.90;99.90;;;;;;5000148;28;20027;-66
2022/02/17 07:32:06;;;;;;;9.15;1.45;;;5.90;99.90;;;;;;4996401;28;20126;-66
2022/02/17 07:34:32;;;;;;;6.20;1.77;;;6.10;99.90;;;;;;4996063;28;20033;-66
2022/02/17 07:36:57;;;;;;;6.60;1.98;;;6.30;99.90;;;;;;4997658;28;20452;-66
2022/02/17 07:39:23;;;;;;;8.52;2.13;;;6.30;99.90;;;;;;4995884;28;20022;-66
2022/02/17 07:41:48;;;;;;;13.68;1.92;;;5.90;99.90;;;;;;4995618;28;20021;-66
2022/02/17 07:44:14;;;;;;;8.80;2.30;;;6.00;99.90;;;;;;5006118;28;20034;-66
2022/02/17 07:46:40;;;;;;;9.90;1.88;;;6.00;99.90;;;;;;4990269;28;20039;-66
2022/02/17 07:49:06;;;;;;;2.65;0.85;;;6.20;99.90;;;;;;4995200;28;21114;-66
2022/02/17 07:51:33;;;;;;;2.15;1.15;;;6.20;99.90;;;;;;4993730;28;20058;-66
2022/02/17 07:53:58;;;;;;;3.30;1.20;;;6.10;99.90;;;;;;4996182;28;20018;-66
2022/02/17 07:56:24;;;;;;;10.75;1.38;;;6.10;99.90;;;;;;4989585;28;20049;-66
2022/02/17 07:58:50;;;;;;;2.72;1.08;;;6.10;99.90;;;;;;4994351;28;20096;-66
2022/02/17 08:01:16;;;;;;;4.78;1.83;;;6.10;99.90;;;;;;4993793;28;20122;-66
2022/02/17 08:03:42;;;;;;;5.07;1.92;;;6.10;99.90;;;;;;4994274;28;20485;-67
2022/02/17 08:06:07;;;;;;;3.50;1.25;;;6.20;99.90;;;;;;4993451;28;20117;-66
2022/02/17 08:08:33;;;;;;;2.20;1.17;;;6.30;99.90;;;;;;4988922;28;20538;-66
2022/02/17 08:10:59;;;;;;;10.52;1.40;;;6.30;99.90;;;;;;4991186;28;20042;-66
2022/02/17 08:13:25;;;;;;;8.38;2.10;;;6.60;99.90;;;;;;4990761;28;20026;-66
2022/02/17 08:15:52;;;;;;;12.15;3.25;;;6.90;99.90;;;;;;4989937;28;20036;-66
2022/02/17 08:18:18;;;;;;;3.05;1.05;;;7.20;99.90;;;;;;4995930;28;20037;-66
2022/02/17 08:20:45;;;;;;;9.00;2.25;;;7.60;99.90;;;;;;4992796;28;20038;-66
2022/02/17 08:23:11;;;;;;;7.57;1.95;;;7.60;99.90;;;;;;4987658;28;20023;-66
2022/02/17 08:28:57;;;;;;;3.90;1.75;;;7.90;99.90;;;;;;5160887;27;20308;-65
2022/02/17 08:31:24;;;;;;;2.25;1.30;;;8.20;99.90;;;;;;5128613;27;20031;-65
2022/02/17 08:33:50;;;;;;;2.67;1.20;;;8.20;99.90;;;;;;5130530;27;20031;-66
2022/02/17 08:36:15;;;;;;;14.80;1.55;;;7.90;99.90;;;;;;5121073;27;20125;-65
2022/02/17 08:38:42;;;;;;;1.27;0.93;;;7.40;99.90;;;;;;5128119;27;20011;-65
2022/02/17 08:41:09;;;;;;;9.25;1.92;;;7.00;99.90;;;;;;5131296;27;20432;-65
2022/02/17 08:43:34;;;;;;;1.48;1.15;;;6.80;99.90;;;;;;5132293;27;20071;-65
2022/02/17 08:46:01;;;;;;;18.52;1.33;;;6.80;99.90;;;;;;5113732;27;20027;-65
2022/02/17 08:48:26;;;;;;;3.85;1.25;;;6.70;99.90;;;;;;5135248;27;20030;-65
2022/02/17 08:50:52;;;;;;;5.55;1.30;;;6.70;99.90;;;;;;5136891;27;20027;-65
2022/02/17 08:53:18;;;;;;;8.00;1.83;;;6.60;99.90;;;;;;5124214;27;20038;-65
2022/02/17 08:55:44;;;;;;;10.27;1.80;;;6.60;99.90;;;;;;5132877;27;20028;-65
2022/02/17 08:58:10;;;;;;;13.32;1.30;;;6.70;99.90;;;;;;5137539;27;20034;-65
2022/02/17 09:00:35;;;;;;;2.28;1.08;;;6.90;99.90;;;;;;5134502;27;20058;-65
2022/02/17 09:03:01;;;;;;;3.20;0.98;;;6.90;99.90;;;;;;5134742;27;20030;-65
2022/02/17 09:05:27;;;;;;;3.03;1.73;;;7.20;99.90;;;;;;5133456;27;20054;-65
2022/02/17 09:07:54;;;;;;;5.57;1.95;;;7.70;99.90;;;;;;5121126;27;20031;-65
2022/02/17 09:10:19;;;;;;;5.70;0.80;;;8.00;99.90;;;;;;5100481;28;20377;-65
2022/02/17 09:12:46;;;;;;;2.35;1.20;;;8.20;99.90;;;;;;5108161;28;20034;-65
2022/02/17 09:15:12;;;;;;;4.47;1.10;;;8.30;99.90;;;;;;5120677;27;20019;-65
2022/02/17 09:17:37;;;;;;;5.55;1.75;;;8.30;99.90;;;;;;5125890;27;20020;-65
2022/02/17 09:20:05;;;;;;;4.03;1.35;;;8.20;99.90;;;;;;5123093;27;20100;-65
2022/02/17 09:22:31;;;;;;;15.68;2.90;;;8.40;99.90;;;;;;5122916;27;20545;-65
2022/02/17 09:24:56;;;;;;;7.63;1.67;;;8.50;99.90;;;;;;5122276;27;20317;-65
2022/02/17 09:27:22;;;;;;;6.10;1.75;;;8.60;99.90;;;;;;5127080;27;20043;-65
2022/02/17 09:29:48;;;;;;;1.77;1.02;;;9.10;99.90;;;;;;5119783;27;20507;-65
2022/02/17 09:32:13;;;;;;;3.95;1.35;;;9.30;99.90;;;;;;5122326;27;20491;-67
2022/02/17 09:34:40;;;;;;;5.65;1.52;;;9.40;99.90;;;;;;5130009;27;20028;-66
2022/02/17 09:37:05;;;;;;;3.17;1.45;;;9.70;99.90;;;;;;5122533;27;20132;-65
2022/02/17 09:39:33;;;;;;;9.10;1.52;;;9.50;99.90;;;;;;5114287;27;20031;-65
2022/02/17 09:42:01;;;;;;;3.00;1.10;;;9.60;99.90;;;;;;5110598;27;20077;-65
2022/02/17 09:44:27;;;;;;;3.88;1.08;;;9.60;99.90;;;;;;5114424;27;20024;-65
2022/02/17 09:46:53;;;;;;;8.15;1.20;;;9.30;99.90;;;;;;5107334;28;20447;-65
2022/02/17 09:49:20;;;;;;;3.97;1.33;;;9.60;99.90;;;;;;5104418;28;20016;-65
2022/02/17 09:51:48;;;;;;;4.35;1.20;;;10.00;99.90;;;;;;5103755;28;20020;-65
2022/02/17 09:54:13;;;;;;;7.22;3.17;;;10.40;99.90;;;;;;5101882;27;20028;-65
2022/02/17 09:56:42;;;;;;;3.42;1.50;;;9.40;99.90;;;;;;5101649;28;20042;-65
2022/02/17 09:59:08;;;;;;;9.02;2.10;;;8.80;99.90;;;;;;5106106;27;20065;-65
2022/02/17 10:01:35;;;;;;;3.63;1.20;;;8.50;99.90;;;;;;5083203;28;20046;-65
2022/02/17 10:04:22;;;;;;;3.75;1.20;;;8.40;99.90;;;;;;5107078;27;20062;-65
2022/02/17 10:06:49;;;;;;;4.95;1.40;;;8.50;99.90;;;;;;5103082;28;20091;-65
2022/02/17 10:09:17;;;;;;;8.20;1.55;;;9.00;99.90;;;;;;5098489;28;20016;-66
2022/02/17 10:11:44;;;;;;;2.67;1.10;;;9.60;99.90;;;;;;5107777;27;20488;-65
2022/02/17 10:14:16;;;;;;;10.73;2.15;;;9.40;99.90;;;;;;5091651;28;20023;-65
2022/02/17 10:16:52;;;;;;;6.57;1.63;;;9.60;99.90;;;;;;5118617;27;20031;-65
2022/02/17 10:19:18;;;;;;;5.68;1.70;;;9.60;99.90;;;;;;5107251;27;20019;-65
2022/02/17 10:21:44;;;;;;;5.43;1.38;;;10.00;99.90;;;;;;5112257;27;20039;-65
2022/02/17 10:24:33;;;;;;;3.70;1.00;;;10.10;99.90;;;;;;5102865;27;20076;-65
2022/02/17 10:27:10;;;;;;;2.90;1.25;;;10.10;99.90;;;;;;5107598;27;20040;-65
2022/02/17 10:29:37;;;;;;;11.52;2.30;;;9.70;99.90;;;;;;5108192;27;20479;-65
2022/02/17 10:32:12;;;;;;;10.30;1.20;;;9.40;99.90;;;;;;5104608;28;20016;-65
2022/02/17 10:34:42;;;;;;;3.22;1.02;;;9.40;99.90;;;;;;5105845;27;20499;-65
2022/02/17 10:37:09;;;;;;;5.68;1.23;;;9.30;99.90;;;;;;5107953;28;20551;-66
2022/02/17 10:39:38;;;;;;;4.70;1.23;;;9.30;99.90;;;;;;5098726;27;20027;-66
2022/02/17 10:42:07;;;;;;;0.77;0.70;;;9.30;99.90;;;;;;5105122;27;20069;-65
2022/02/17 10:44:39;;;;;;;12.82;2.00;;;9.30;99.90;;;;;;5094705;28;20027;-65
2022/02/17 10:47:15;;;;;;;9.43;1.70;;;9.10;99.90;;;;;;5084334;28;20020;-65
2022/02/17 10:49:47;;;;;;;8.55;1.75;;;8.60;99.90;;;;;;5090769;27;20387;-65
2022/02/17 10:52:25;;;;;;;4.18;1.23;;;8.20;99.90;;;;;;5101318;28;20051;-65
2022/02/17 10:55:18;;;;;;;1.83;0.90;;;8.00;99.90;;;;;;5105595;27;20474;-65
2022/02/17 10:57:51;;;;;;;4.47;1.58;;;8.50;99.90;;;;;;5106663;27;20071;-65
2022/02/17 11:00:19;;;;;;;5.07;1.48;;;8.70;99.90;;;;;;5106155;28;20096;-66
2022/02/17 11:02:47;;;;;;;3.95;1.20;;;9.20;99.90;;;;;;5106612;27;20078;-65
2022/02/17 11:05:13;;;;;;;4.47;1.85;;;8.80;99.90;;;;;;5106804;27;20023;-66
2022/02/17 11:07:40;;;;;;;1.20;0.80;;;8.50;99.90;;;;;;5104488;27;20044;-65
2022/02/17 11:10:08;;;;;;;4.75;1.10;;;8.40;99.90;;;;;;5105694;27;20499;-65
2022/02/17 11:12:34;;;;;;;3.28;1.40;;;8.40;99.90;;;;;;5103160;28;20042;-65
2022/02/17 11:15:04;;;;;;;4.82;1.55;;;8.30;99.90;;;;;;5091535;27;20552;-65
2022/02/17 11:17:34;;;;;;;3.22;1.23;;;8.30;99.90;;;;;;5107459;27;20028;-65
2022/02/17 11:20:02;;;;;;;6.97;1.65;;;8.60;99.90;;;;;;5103642;27;20023;-65
2022/02/17 11:22:28;;;;;;;12.45;1.30;;;8.90;99.90;;;;;;5108107;27;20054;-66
2022/02/17 11:24:55;;;;;;;2.08;0.90;;;8.80;99.90;;;;;;5101750;27;20024;-67
2022/02/17 11:27:22;;;;;;;3.92;1.15;;;8.90;99.90;;;;;;5106295;27;20045;-66
2022/02/17 11:29:50;;;;;;;4.10;1.30;;;8.60;99.90;;;;;;5116486;27;20030;-65
2022/02/17 11:32:22;;;;;;;5.90;1.52;;;8.60;99.90;;;;;;5106156;27;20022;-65
2022/02/17 11:34:48;;;;;;;2.58;1.10;;;8.60;99.90;;;;;;5106142;28;20024;-65
2022/02/17 11:37:41;;;;;;;3.15;1.13;;;8.70;99.90;;;;;;5104273;28;20023;-66
2022/02/17 11:40:08;;;;;;;3.78;1.40;;;9.20;99.90;;;;;;5102263;28;20048;-65
2022/02/17 11:42:36;;;;;;;2.00;0.88;;;9.10;99.90;;;;;;5098251;28;20074;-66
2022/02/17 11:45:09;;;;;;;9.95;1.80;;;9.00;99.90;;;;;;5108141;27;20040;-66
2022/02/17 11:47:50;;;;;;;6.93;1.65;;;8.90;99.90;;;;;;5100053;27;20500;-66
2022/02/17 11:50:36;;;;;;;7.22;1.75;;;8.90;99.90;;;;;;5105426;28;20027;-65
2022/02/17 11:53:31;;;;;;;2.42;1.00;;;8.80;99.90;;;;;;5103559;28;20471;-66
2022/02/17 11:56:05;;;;;;;4.60;0.93;;;9.10;99.90;;;;;;5108742;27;20117;-66
2022/02/17 11:58:54;;;;;;;3.15;1.00;;;9.50;99.90;;;;;;5099769;28;20491;-65
2022/02/17 12:01:25;;;;;;;1.85;0.93;;;10.40;99.90;;;;;;5094646;28;20107;-68
2022/02/17 12:04:01;;;;;;;6.05;1.25;;;10.80;99.90;;;;;;5103474;28;20035;-65
2022/02/17 12:06:46;;;;;;;4.35;0.90;;;10.90;99.90;;;;;;5090004;28;20270;-65
2022/02/17 12:09:33;;;;;;;2.30;0.90;;;11.40;99.90;;;;;;5102497;27;20011;-66
2022/02/17 12:12:14;;;;;;;6.28;1.55;;;12.10;99.90;;;;;;5105678;28;20019;-65
2022/02/17 12:15:04;;;;;;;4.63;1.10;;;11.00;99.90;;;;;;5103921;28;20542;-65
2022/02/17 12:17:29;;;;;;;8.73;1.07;;;11.70;99.90;;;;;;5105039;28;20035;-65
2022/02/17 12:20:22;;;;;;;2.17;0.85;;;12.10;99.90;;;;;;5106650;28;20125;-65
2022/02/17 12:22:55;;;;;;;4.70;0.93;;;12.00;99.90;;;;;;5101825;27;20036;-66
2022/02/17 12:25:28;;;;;;;5.93;1.38;;;12.40;98.70;;;;;;5103478;28;20082;-65
2022/02/17 12:27:55;;;;;;;2.97;1.05;;;13.00;98.50;;;;;;5101120;28;20495;-66
2022/02/17 12:30:33;;;;;;;6.13;0.98;;;12.70;99.20;;;;;;5104055;28;20047;-65
2022/02/17 12:33:03;;;;;;;4.57;0.90;;;13.00;98.60;;;;;;5086808;28;20059;-65
2022/02/17 12:35:28;;;;;;;5.07;1.00;;;13.00;98.50;;;;;;5101331;28;20024;-65
2022/02/17 12:38:04;;;;;;;4.88;1.20;;;13.20;98.40;;;;;;5106674;28;20382;-65
2022/02/17 12:40:31;;;;;;;6.38;1.60;;;12.60;98.30;;;;;;5104135;28;20077;-65
2022/02/17 12:42:57;;;;;;;8.85;1.67;;;12.10;97.90;;;;;;5089086;28;20034;-65
2022/02/17 12:45:54;;;;;;;3.35;1.30;;;12.10;97.80;;;;;;5088193;28;20024;-65
2022/02/17 12:48:20;;;;;;;0.98;0.73;;;12.30;98.10;;;;;;5092655;28;20037;-65
2022/02/17 12:50:46;;;;;;;3.03;1.13;;;12.20;98.10;;;;;;5100258;28;20468;-65
2022/02/17 12:53:12;;;;;;;4.10;0.98;;;12.20;97.60;;;;;;5082880;28;20072;-67
2022/02/17 12:55:39;;;;;;;1.92;0.73;;;12.10;98.20;;;;;;5103482;28;20030;-65
2022/02/17 12:58:04;;;;;;;6.40;1.35;;;12.50;96.60;;;;;;5103091;28;20027;-66